Pagoda, Texas
Current Conditions -  °F | °C
As of 6:15 PM on Thursday 27 Nov 2014 (Local Time) from KDKR Reporting Station
Clear Clear  
Wind Chill: 48°   Ceiling: Unl
Heat Index: 48°   Visibility: 10mi
Dew Point: 43°   Wind: 0mph
Humidity: 82%   Direction: NA
Pressure: 30.45"   Gusts: NA
Location:  30.9905°N, 95.3368°W
Report Text: KDKR 280015Z AUTO 00000KT 10SM CLR 09/06 A3045 RMK AO2
Loading
Personal Weather Stations






























Interactive Weather Map New forecast layout! Learn more

10-Day Weather Forecast

Advertisements
Track Severe Weather on mobile